Terminal Aerodrome Forecast
Issued by NWS

Home | Current Version | Previous Version | Text Only | Print | Product List | Glossary Off
Versions: 1 2 3 4 5 6 7 8 9 10 11 12 13 14 15 16 17 18 19

238
FTUS43 KUNR 271120
TAFGCC
TAF
KGCC 271120Z 2712/2812 17008KT P6SM SCT070
     FM271700 13007KT P6SM SCT150
     FM280200 13010KT P6SM BKN060
     FM280900 09005KT 6SM -RA BR OVC025=

USA.gov is the U.S. government's official web portal to all federal, state and local government web resources and services.